sensor_id;sensor_type;location;lat;lon;timestamp;pressure;altitude;pressure_sealevel;temperature;humidity
74627;BME280;63132;52.268;5.192;2023-07-02T00:00:33;100578.63;;;19.05;53.77
74627;BME280;63132;52.268;5.192;2023-07-02T00:03:00;100575.44;;;18.87;53.35
74627;BME280;63132;52.268;5.192;2023-07-02T00:05:26;100577.59;;;18.91;52.78
74627;BME280;63132;52.268;5.192;2023-07-02T00:07:51;100581.69;;;18.87;52.96
74627;BME280;63132;52.268;5.192;2023-07-02T00:10:17;100578.59;;;18.75;53.08
74627;BME280;63132;52.268;5.192;2023-07-02T00:12:42;100573.19;;;18.75;52.91
74627;BME280;63132;52.268;5.192;2023-07-02T00:15:09;100575.38;;;18.56;52.78
74627;BME280;63132;52.268;5.192;2023-07-02T00:17:35;100574.34;;;18.42;53.13
74627;BME280;63132;52.268;5.192;2023-07-02T00:20:06;100577.56;;;18.38;52.58
74627;BME280;63132;52.268;5.192;2023-07-02T00:22:39;100578.09;;;18.33;52.70
74627;BME280;63132;52.268;5.192;2023-07-02T00:25:12;100580.97;;;18.31;52.75
74627;BME280;63132;52.268;5.192;2023-07-02T00:27:37;100574.16;;;18.20;52.56
74627;BME280;63132;52.268;5.192;2023-07-02T00:30:03;100579.34;;;18.22;52.31
74627;BME280;63132;52.268;5.192;2023-07-02T00:32:29;100578.38;;;18.15;52.51
74627;BME280;63132;52.268;5.192;2023-07-02T00:34:54;100582.09;;;18.14;52.30
74627;BME280;63132;52.268;5.192;2023-07-02T00:37:20;100579.72;;;18.10;52.48
74627;BME280;63132;52.268;5.192;2023-07-02T00:39:45;100582.78;;;18.07;52.12
74627;BME280;63132;52.268;5.192;2023-07-02T00:42:11;100591.75;;;17.99;52.70
74627;BME280;63132;52.268;5.192;2023-07-02T00:44:37;100591.28;;;17.96;52.65
74627;BME280;63132;52.268;5.192;2023-07-02T00:47:07;100589.94;;;17.92;52.83
74627;BME280;63132;52.268;5.192;2023-07-02T00:49:33;100588.31;;;17.82;53.19
74627;BME280;63132;52.268;5.192;2023-07-02T00:51:59;100595.13;;;17.70;54.01
74627;BME280;63132;52.268;5.192;2023-07-02T00:54:24;100594.78;;;17.65;53.43
74627;BME280;63132;52.268;5.192;2023-07-02T00:56:52;100603.22;;;17.61;53.40
74627;BME280;63132;52.268;5.192;2023-07-02T00:59:18;100602.06;;;17.56;53.78
74627;BME280;63132;52.268;5.192;2023-07-02T01:01:43;100599.91;;;17.43;54.48
74627;BME280;63132;52.268;5.192;2023-07-02T01:04:18;100599.59;;;17.37;54.65
74627;BME280;63132;52.268;5.192;2023-07-02T01:06:43;100599.09;;;17.34;54.26
74627;BME280;63132;52.268;5.192;2023-07-02T01:09:09;100601.66;;;17.27;54.92
74627;BME280;63132;52.268;5.192;2023-07-02T01:11:43;100596.28;;;17.19;56.24
74627;BME280;63132;52.268;5.192;2023-07-02T01:14:18;100597.97;;;17.11;56.32
74627;BME280;63132;52.268;5.192;2023-07-02T01:16:47;100603.84;;;16.98;55.46
74627;BME280;63132;52.268;5.192;2023-07-02T01:19:21;100603.00;;;17.06;55.15
74627;BME280;63132;52.268;5.192;2023-07-02T01:21:48;100601.00;;;17.08;54.93
74627;BME280;63132;52.268;5.192;2023-07-02T01:24:15;100598.47;;;17.07;55.32
74627;BME280;63132;52.268;5.192;2023-07-02T01:26:41;100600.00;;;17.01;55.81
74627;BME280;63132;52.268;5.192;2023-07-02T01:29:16;100607.22;;;17.09;55.38
74627;BME280;63132;52.268;5.192;2023-07-02T01:31:42;100601.34;;;16.97;55.69
74627;BME280;63132;52.268;5.192;2023-07-02T01:34:07;100608.03;;;17.09;56.06
74627;BME280;63132;52.268;5.192;2023-07-02T01:36:34;100607.72;;;16.96;56.10
74627;BME280;63132;52.268;5.192;2023-07-02T01:38:59;100604.19;;;17.03;56.21
74627;BME280;63132;52.268;5.192;2023-07-02T01:41:24;100608.41;;;16.89;56.70
74627;BME280;63132;52.268;5.192;2023-07-02T01:43:50;100605.19;;;16.94;56.05
74627;BME280;63132;52.268;5.192;2023-07-02T01:46:15;100612.09;;;16.88;56.52
74627;BME280;63132;52.268;5.192;2023-07-02T01:48:40;100608.56;;;16.96;56.40
74627;BME280;63132;52.268;5.192;2023-07-02T01:51:06;100605.38;;;16.92;56.44
74627;BME280;63132;52.268;5.192;2023-07-02T01:53:31;100613.44;;;16.92;57.09
74627;BME280;63132;52.268;5.192;2023-07-02T01:55:56;100607.38;;;16.90;57.83
74627;BME280;63132;52.268;5.192;2023-07-02T01:58:22;100606.53;;;16.98;56.83
74627;BME280;63132;52.268;5.192;2023-07-02T02:00:47;100608.56;;;16.96;57.58
74627;BME280;63132;52.268;5.192;2023-07-02T02:03:13;100609.09;;;16.83;56.76
74627;BME280;63132;52.268;5.192;2023-07-02T02:05:38;100612.94;;;16.80;58.03
74627;BME280;63132;52.268;5.192;2023-07-02T02:08:03;100605.38;;;16.67;57.55
74627;BME280;63132;52.268;5.192;2023-07-02T02:10:29;100609.41;;;16.63;58.27
74627;BME280;63132;52.268;5.192;2023-07-02T02:12:54;100618.13;;;16.65;57.87
74627;BME280;63132;52.268;5.192;2023-07-02T02:15:19;100612.13;;;16.55;57.80
74627;BME280;63132;52.268;5.192;2023-07-02T02:17:45;100615.63;;;16.47;58.45
74627;BME280;63132;52.268;5.192;2023-07-02T02:20:11;100620.50;;;16.43;59.59
74627;BME280;63132;52.268;5.192;2023-07-02T02:22:36;100606.88;;;16.28;59.48
74627;BME280;63132;52.268;5.192;2023-07-02T02:25:01;100612.25;;;16.28;60.45
74627;BME280;63132;52.268;5.192;2023-07-02T02:27:28;100613.38;;;16.17;60.85
74627;BME280;63132;52.268;5.192;2023-07-02T02:29:54;100622.47;;;16.16;61.55
74627;BME280;63132;52.268;5.192;2023-07-02T02:32:19;100624.09;;;16.01;61.44
74627;BME280;63132;52.268;5.192;2023-07-02T02:34:46;100620.53;;;15.92;61.39
74627;BME280;63132;52.268;5.192;2023-07-02T02:37:12;100627.72;;;15.91;61.48
74627;BME280;63132;52.268;5.192;2023-07-02T02:39:37;100629.03;;;15.79;61.73
74627;BME280;63132;52.268;5.192;2023-07-02T02:42:02;100625.34;;;15.80;62.38
74627;BME280;63132;52.268;5.192;2023-07-02T02:44:28;100629.72;;;15.81;61.62
74627;BME280;63132;52.268;5.192;2023-07-02T02:46:54;100621.31;;;15.84;61.63
74627;BME280;63132;52.268;5.192;2023-07-02T02:49:20;100630.06;;;15.86;61.79
74627;BME280;63132;52.268;5.192;2023-07-02T02:51:45;100631.53;;;15.80;62.93
74627;BME280;63132;52.268;5.192;2023-07-02T02:54:10;100640.06;;;15.76;62.65
74627;BME280;63132;52.268;5.192;2023-07-02T02:56:35;100639.66;;;15.62;61.76
74627;BME280;63132;52.268;5.192;2023-07-02T02:59:01;100642.22;;;15.64;62.02
74627;BME280;63132;52.268;5.192;2023-07-02T03:01:26;100641.00;;;15.58;61.98
74627;BME280;63132;52.268;5.192;2023-07-02T03:03:58;100645.97;;;15.53;62.53
74627;BME280;63132;52.268;5.192;2023-07-02T03:06:24;100651.16;;;15.46;62.12
74627;BME280;63132;52.268;5.192;2023-07-02T03:08:49;100650.31;;;15.45;61.31
74627;BME280;63132;52.268;5.192;2023-07-02T03:11:14;100651.31;;;15.44;60.83
74627;BME280;63132;52.268;5.192;2023-07-02T03:13:39;100652.31;;;15.43;60.44
74627;BME280;63132;52.268;5.192;2023-07-02T03:16:05;100650.63;;;15.42;60.33
74627;BME280;63132;52.268;5.192;2023-07-02T03:18:31;100653.47;;;15.41;61.03
74627;BME280;63132;52.268;5.192;2023-07-02T03:20:57;100645.38;;;15.32;60.62
74627;BME280;63132;52.268;5.192;2023-07-02T03:23:23;100656.41;;;15.56;60.16
74627;BME280;63132;52.268;5.192;2023-07-02T03:25:48;100663.09;;;15.52;60.37
74627;BME280;63132;52.268;5.192;2023-07-02T03:28:13;100654.41;;;15.58;60.22
74627;BME280;63132;52.268;5.192;2023-07-02T03:30:39;100658.75;;;15.59;59.69
74627;BME280;63132;52.268;5.192;2023-07-02T03:33:04;100659.44;;;15.61;60.19
74627;BME280;63132;52.268;5.192;2023-07-02T03:35:29;100661.13;;;15.62;60.71
74627;BME280;63132;52.268;5.192;2023-07-02T03:37:54;100659.97;;;15.65;60.71
74627;BME280;63132;52.268;5.192;2023-07-02T03:40:20;100655.75;;;15.62;61.53
74627;BME280;63132;52.268;5.192;2023-07-02T03:42:45;100663.78;;;15.62;60.95
74627;BME280;63132;52.268;5.192;2023-07-02T03:45:10;100659.91;;;15.56;60.88
74627;BME280;63132;52.268;5.192;2023-07-02T03:47:36;100663.28;;;15.58;60.77
74627;BME280;63132;52.268;5.192;2023-07-02T03:50:01;100659.44;;;15.61;60.49
74627;BME280;63132;52.268;5.192;2023-07-02T03:52:27;100664.63;;;15.62;61.79
74627;BME280;63132;52.268;5.192;2023-07-02T03:54:52;100662.59;;;15.56;62.20
74627;BME280;63132;52.268;5.192;2023-07-02T03:57:17;100669.47;;;15.59;61.97
74627;BME280;63132;52.268;5.192;2023-07-02T03:59:43;100671.31;;;15.58;61.76
74627;BME280;63132;52.268;5.192;2023-07-02T04:02:08;100670.00;;;15.62;60.89
74627;BME280;63132;52.268;5.192;2023-07-02T04:04:34;100680.56;;;15.64;61.19
74627;BME280;63132;52.268;5.192;2023-07-02T04:06:59;100672.84;;;15.61;62.29
74627;BME280;63132;52.268;5.192;2023-07-02T04:09:24;100681.75;;;15.61;62.20
74627;BME280;63132;52.268;5.192;2023-07-02T04:11:49;100676.25;;;15.71;62.13
74627;BME280;63132;52.268;5.192;2023-07-02T04:14:15;100682.25;;;15.65;62.33
74627;BME280;63132;52.268;5.192;2023-07-02T04:16:40;100684.66;;;15.77;63.11
74627;BME280;63132;52.268;5.192;2023-07-02T04:19:06;100683.28;;;15.72;62.04
74627;BME280;63132;52.268;5.192;2023-07-02T04:21:31;100686.38;;;15.86;60.82
74627;BME280;63132;52.268;5.192;2023-07-02T04:23:56;100682.72;;;15.95;60.50
74627;BME280;63132;52.268;5.192;2023-07-02T04:26:22;100688.78;;;15.97;60.19
74627;BME280;63132;52.268;5.192;2023-07-02T04:28:47;100694.09;;;16.24;59.53
74627;BME280;63132;52.268;5.192;2023-07-02T04:31:12;100696.13;;;16.39;59.10
74627;BME280;63132;52.268;5.192;2023-07-02T04:33:38;100691.59;;;16.31;59.95
74627;BME280;63132;52.268;5.192;2023-07-02T04:36:03;100694.66;;;16.44;59.42
74627;BME280;63132;52.268;5.192;2023-07-02T04:38:29;100694.69;;;16.53;58.70
74627;BME280;63132;52.268;5.192;2023-07-02T04:40:54;100702.72;;;16.61;58.88
74627;BME280;63132;52.268;5.192;2023-07-02T04:43:27;100699.91;;;16.63;59.11
74627;BME280;63132;52.268;5.192;2023-07-02T04:45:54;100706.78;;;16.57;58.71
74627;BME280;63132;52.268;5.192;2023-07-02T04:48:20;100697.72;;;16.83;58.23
74627;BME280;63132;52.268;5.192;2023-07-02T04:50:45;100700.06;;;16.86;58.48
74627;BME280;63132;52.268;5.192;2023-07-02T04:53:10;100706.44;;;16.93;58.46
74627;BME280;63132;52.268;5.192;2023-07-02T04:55:36;100705.97;;;16.98;58.21
74627;BME280;63132;52.268;5.192;2023-07-02T04:58:01;100703.09;;;17.08;58.01
74627;BME280;63132;52.268;5.192;2023-07-02T05:00:26;100713.53;;;17.28;57.52
74627;BME280;63132;52.268;5.192;2023-07-02T05:02:51;100701.09;;;17.27;57.65
74627;BME280;63132;52.268;5.192;2023-07-02T05:05:17;100704.28;;;17.39;57.38
74627;BME280;63132;52.268;5.192;2023-07-02T05:07:43;100706.63;;;17.34;57.52
74627;BME280;63132;52.268;5.192;2023-07-02T05:10:08;100710.47;;;17.56;57.55
74627;BME280;63132;52.268;5.192;2023-07-02T05:12:34;100710.47;;;17.56;56.79
74627;BME280;63132;52.268;5.192;2023-07-02T05:14:59;100717.34;;;17.67;56.63
74627;BME280;63132;52.268;5.192;2023-07-02T05:17:24;100722.03;;;17.73;56.11
74627;BME280;63132;52.268;5.192;2023-07-02T05:19:50;100718.41;;;17.98;56.31
74627;BME280;63132;52.268;5.192;2023-07-02T05:22:15;100725.88;;;17.79;56.08
74627;BME280;63132;52.268;5.192;2023-07-02T05:24:40;100727.94;;;18.09;55.23
74627;BME280;63132;52.268;5.192;2023-07-02T05:27:06;100722.47;;;17.94;55.39
74627;BME280;63132;52.268;5.192;2023-07-02T05:29:31;100720.09;;;17.99;55.16
74627;BME280;63132;52.268;5.192;2023-07-02T05:31:57;100719.50;;;18.29;55.38
74627;BME280;63132;52.268;5.192;2023-07-02T05:34:22;100731.53;;;18.41;55.09
74627;BME280;63132;52.268;5.192;2023-07-02T05:36:47;100726.72;;;18.28;54.85
74627;BME280;63132;52.268;5.192;2023-07-02T05:39:12;100730.19;;;18.69;54.30
74627;BME280;63132;52.268;5.192;2023-07-02T05:41:38;100737.75;;;18.42;54.38
74627;BME280;63132;52.268;5.192;2023-07-02T05:44:03;100729.75;;;18.57;53.85
74627;BME280;63132;52.268;5.192;2023-07-02T05:46:29;100733.63;;;18.86;53.25
74627;BME280;63132;52.268;5.192;2023-07-02T05:48:54;100740.00;;;18.62;53.19
74627;BME280;63132;52.268;5.192;2023-07-02T05:51:23;100737.69;;;18.50;52.64
74627;BME280;63132;52.268;5.192;2023-07-02T05:53:49;100744.41;;;18.86;52.59
74627;BME280;63132;52.268;5.192;2023-07-02T05:56:15;100743.03;;;19.05;51.97
74627;BME280;63132;52.268;5.192;2023-07-02T05:58:41;100757.34;;;19.14;52.06
74627;BME280;63132;52.268;5.192;2023-07-02T06:01:06;100744.03;;;18.89;51.62
74627;BME280;63132;52.268;5.192;2023-07-02T06:03:32;100763.59;;;19.07;52.13
74627;BME280;63132;52.268;5.192;2023-07-02T06:05:57;100760.72;;;19.08;51.17
74627;BME280;63132;52.268;5.192;2023-07-02T06:08:23;100761.22;;;19.35;51.01
74627;BME280;63132;52.268;5.192;2023-07-02T06:10:48;100776.22;;;18.83;51.39
74627;BME280;63132;52.268;5.192;2023-07-02T06:13:14;100763.00;;;18.96;51.75
74627;BME280;63132;52.268;5.192;2023-07-02T06:15:40;100770.75;;;19.23;51.70
74627;BME280;63132;52.268;5.192;2023-07-02T06:18:05;100768.97;;;19.15;51.77
74627;BME280;63132;52.268;5.192;2023-07-02T06:20:31;100765.13;;;19.48;51.39
74627;BME280;63132;52.268;5.192;2023-07-02T06:22:56;100759.59;;;19.80;50.73
74627;BME280;63132;52.268;5.192;2023-07-02T06:25:22;100758.81;;;18.93;52.37
74627;BME280;63132;52.268;5.192;2023-07-02T06:27:47;100771.00;;;19.13;52.08
74627;BME280;63132;52.268;5.192;2023-07-02T06:30:12;100776.94;;;19.32;52.09
74627;BME280;63132;52.268;5.192;2023-07-02T06:32:38;100770.88;;;19.30;52.57
74627;BME280;63132;52.268;5.192;2023-07-02T06:35:04;100771.25;;;19.26;51.61
74627;BME280;63132;52.268;5.192;2023-07-02T06:37:31;100774.41;;;19.07;51.79
74627;BME280;63132;52.268;5.192;2023-07-02T06:39:57;100780.00;;;19.44;50.78
74627;BME280;63132;52.268;5.192;2023-07-02T06:42:22;100780.41;;;19.17;51.18
74627;BME280;63132;52.268;5.192;2023-07-02T06:44:48;100775.41;;;19.68;50.42
74627;BME280;63132;52.268;5.192;2023-07-02T06:47:13;100773.72;;;19.67;50.18
74627;BME280;63132;52.268;5.192;2023-07-02T06:49:38;100794.31;;;19.98;49.08
74627;BME280;63132;52.268;5.192;2023-07-02T06:52:04;100787.84;;;20.07;48.76
74627;BME280;63132;52.268;5.192;2023-07-02T06:54:29;100799.91;;;19.96;48.45
74627;BME280;63132;52.268;5.192;2023-07-02T06:56:54;100795.91;;;20.22;48.30
74627;BME280;63132;52.268;5.192;2023-07-02T06:59:21;100796.38;;;20.26;47.34
74627;BME280;63132;52.268;5.192;2023-07-02T07:01:47;100811.56;;;20.42;47.31
74627;BME280;63132;52.268;5.192;2023-07-02T07:04:12;100806.34;;;20.78;47.82
74627;BME280;63132;52.268;5.192;2023-07-02T07:06:37;100808.72;;;20.66;46.87
74627;BME280;63132;52.268;5.192;2023-07-02T07:09:03;100818.91;;;20.33;46.93
74627;BME280;63132;52.268;5.192;2023-07-02T07:11:29;100813.16;;;20.21;47.00
74627;BME280;63132;52.268;5.192;2023-07-02T07:13:54;100830.63;;;19.95;47.83
74627;BME280;63132;52.268;5.192;2023-07-02T07:16:19;100833.47;;;19.63;48.04
74627;BME280;63132;52.268;5.192;2023-07-02T07:18:45;100838.38;;;19.60;48.19
74627;BME280;63132;52.268;5.192;2023-07-02T07:21:10;100837.34;;;19.61;47.91
74627;BME280;63132;52.268;5.192;2023-07-02T07:23:36;100832.69;;;19.93;47.12
74627;BME280;63132;52.268;5.192;2023-07-02T07:26:01;100839.84;;;20.01;45.95
74627;BME280;63132;52.268;5.192;2023-07-02T07:28:26;100846.63;;;19.82;47.02
74627;BME280;63132;52.268;5.192;2023-07-02T07:30:52;100844.41;;;19.47;46.91
74627;BME280;63132;52.268;5.192;2023-07-02T07:33:17;100840.13;;;19.91;46.41
74627;BME280;63132;52.268;5.192;2023-07-02T07:35:42;100844.66;;;20.14;45.81
74627;BME280;63132;52.268;5.192;2023-07-02T07:38:08;100844.97;;;20.56;45.33
74627;BME280;63132;52.268;5.192;2023-07-02T07:40:33;100847.28;;;20.75;44.86
74627;BME280;63132;52.268;5.192;2023-07-02T07:42:59;100850.38;;;20.56;44.77
74627;BME280;63132;52.268;5.192;2023-07-02T07:45:24;100847.09;;;20.76;43.74
74627;BME280;63132;52.268;5.192;2023-07-02T07:47:50;100840.72;;;20.32;44.75
74627;BME280;63132;52.268;5.192;2023-07-02T07:50:15;100858.00;;;19.92;45.56
74627;BME280;63132;52.268;5.192;2023-07-02T07:52:42;100861.09;;;19.42;46.60
74627;BME280;63132;52.268;5.192;2023-07-02T07:55:08;100859.34;;;19.73;46.50
74627;BME280;63132;52.268;5.192;2023-07-02T07:57:34;100861.06;;;19.89;46.49
74627;BME280;63132;52.268;5.192;2023-07-02T08:00:01;100856.72;;;20.18;45.65
74627;BME280;63132;52.268;5.192;2023-07-02T08:02:26;100852.38;;;20.17;46.12
74627;BME280;63132;52.268;5.192;2023-07-02T08:04:52;100863.59;;;20.06;46.78
74627;BME280;63132;52.268;5.192;2023-07-02T08:07:17;100860.34;;;20.10;47.52
74627;BME280;63132;52.268;5.192;2023-07-02T08:09:42;100867.59;;;19.95;46.91
74627;BME280;63132;52.268;5.192;2023-07-02T08:12:08;100872.88;;;19.88;47.09
74627;BME280;63132;52.268;5.192;2023-07-02T08:14:34;100871.00;;;19.88;46.50
74627;BME280;63132;52.268;5.192;2023-07-02T08:17:00;100868.06;;;19.98;46.23
74627;BME280;63132;52.268;5.192;2023-07-02T08:19:25;100859.53;;;20.25;46.67
74627;BME280;63132;52.268;5.192;2023-07-02T08:21:51;100870.41;;;20.17;46.14
74627;BME280;63132;52.268;5.192;2023-07-02T08:24:16;100878.63;;;19.85;46.06
74627;BME280;63132;52.268;5.192;2023-07-02T08:26:42;100877.72;;;19.93;45.37
74627;BME280;63132;52.268;5.192;2023-07-02T08:29:07;100874.44;;;20.36;45.28
74627;BME280;63132;52.268;5.192;2023-07-02T08:31:32;100873.22;;;20.54;45.01
74627;BME280;63132;52.268;5.192;2023-07-02T08:33:58;100875.69;;;20.86;44.18
74627;BME280;63132;52.268;5.192;2023-07-02T08:36:23;100879.91;;;20.28;43.96
74627;BME280;63132;52.268;5.192;2023-07-02T08:38:49;100879.47;;;20.69;44.14
74627;BME280;63132;52.268;5.192;2023-07-02T08:41:14;100886.53;;;20.70;45.07
74627;BME280;63132;52.268;5.192;2023-07-02T08:43:40;100882.06;;;21.15;43.93
74627;BME280;63132;52.268;5.192;2023-07-02T08:46:05;100885.63;;;21.59;42.36
74627;BME280;63132;52.268;5.192;2023-07-02T08:48:33;100877.16;;;22.27;42.21
74627;BME280;63132;52.268;5.192;2023-07-02T08:50:59;100882.78;;;22.25;42.42
74627;BME280;63132;52.268;5.192;2023-07-02T08:53:24;100882.41;;;22.70;41.66
74627;BME280;63132;52.268;5.192;2023-07-02T08:55:57;100886.56;;;22.24;41.43
74627;BME280;63132;52.268;5.192;2023-07-02T08:58:23;100903.59;;;22.18;41.96
74627;BME280;63132;52.268;5.192;2023-07-02T09:01:24;100890.84;;;21.83;42.91
74627;BME280;63132;52.268;5.192;2023-07-02T09:03:49;100904.75;;;20.99;44.51
74627;BME280;63132;52.268;5.192;2023-07-02T09:06:17;100897.06;;;21.61;43.65
74627;BME280;63132;52.268;5.192;2023-07-02T09:08:42;100888.22;;;21.96;42.75
74627;BME280;63132;52.268;5.192;2023-07-02T09:13:55;100892.94;;;22.45;40.43
74627;BME280;63132;52.268;5.192;2023-07-02T09:16:28;100895.69;;;21.87;40.33
74627;BME280;63132;52.268;5.192;2023-07-02T09:19:02;100900.19;;;21.58;41.03
74627;BME280;63132;52.268;5.192;2023-07-02T09:21:38;100897.75;;;21.04;42.17
74627;BME280;63132;52.268;5.192;2023-07-02T09:24:21;100908.56;;;21.41;41.67
74627;BME280;63132;52.268;5.192;2023-07-02T09:26:53;100898.09;;;21.16;41.84
74627;BME280;63132;52.268;5.192;2023-07-02T09:29:23;100901.34;;;21.27;42.72
74627;BME280;63132;52.268;5.192;2023-07-02T09:31:49;100912.28;;;21.19;43.17
74627;BME280;63132;52.268;5.192;2023-07-02T09:34:15;100898.06;;;21.32;42.86
74627;BME280;63132;52.268;5.192;2023-07-02T09:36:41;100902.03;;;21.58;42.14
74627;BME280;63132;52.268;5.192;2023-07-02T09:39:31;100897.91;;;21.62;40.83
74627;BME280;63132;52.268;5.192;2023-07-02T09:41:58;100896.41;;;22.03;41.11
74627;BME280;63132;52.268;5.192;2023-07-02T09:49:21;100904.56;;;22.39;38.00
74627;BME280;63132;52.268;5.192;2023-07-02T09:51:47;100908.50;;;22.07;38.35
74627;BME280;63132;52.268;5.192;2023-07-02T09:54:13;100909.38;;;22.43;38.48
74627;BME280;63132;52.268;5.192;2023-07-02T09:56:39;100903.78;;;22.94;38.74
74627;BME280;63132;52.268;5.192;2023-07-02T09:59:05;100918.63;;;22.20;39.74
74627;BME280;63132;52.268;5.192;2023-07-02T10:01:30;100919.53;;;21.55;41.32
74627;BME280;63132;52.268;5.192;2023-07-02T10:03:56;100920.28;;;21.49;41.85
74627;BME280;63132;52.268;5.192;2023-07-02T10:06:21;100916.34;;;21.73;42.18
74627;BME280;63132;52.268;5.192;2023-07-02T10:08:56;100920.53;;;21.32;42.44
74627;BME280;63132;52.268;5.192;2023-07-02T10:11:32;100922.56;;;20.93;42.66
74627;BME280;63132;52.268;5.192;2023-07-02T10:14:00;100933.28;;;21.16;42.11
74627;BME280;63132;52.268;5.192;2023-07-02T10:16:25;100929.00;;;21.07;42.34
74627;BME280;63132;52.268;5.192;2023-07-02T10:18:53;100933.38;;;21.45;42.13
74627;BME280;63132;52.268;5.192;2023-07-02T10:21:19;100922.28;;;21.62;41.43
74627;BME280;63132;52.268;5.192;2023-07-02T10:23:45;100931.13;;;21.49;40.95
74627;BME280;63132;52.268;5.192;2023-07-02T10:26:14;100922.66;;;21.37;41.40
74627;BME280;63132;52.268;5.192;2023-07-02T10:28:40;100935.13;;;21.53;38.81
74627;BME280;63132;52.268;5.192;2023-07-02T10:31:17;100939.09;;;21.35;39.08
74627;BME280;63132;52.268;5.192;2023-07-02T10:33:43;100938.44;;;21.33;39.45
74627;BME280;63132;52.268;5.192;2023-07-02T10:36:17;100932.66;;;21.36;39.02
74627;BME280;63132;52.268;5.192;2023-07-02T10:38:43;100934.84;;;21.48;39.59
74627;BME280;63132;52.268;5.192;2023-07-02T10:41:08;100946.00;;;21.38;39.69
74627;BME280;63132;52.268;5.192;2023-07-02T10:43:34;100955.34;;;22.01;38.14
74627;BME280;63132;52.268;5.192;2023-07-02T10:46:00;100938.56;;;21.84;39.44
74627;BME280;63132;52.268;5.192;2023-07-02T10:48:25;100945.72;;;22.56;37.27
74627;BME280;63132;52.268;5.192;2023-07-02T10:50:51;100941.66;;;23.29;36.54
74627;BME280;63132;52.268;5.192;2023-07-02T10:53:17;100943.19;;;23.52;35.70
74627;BME280;63132;52.268;5.192;2023-07-02T10:55:44;100937.72;;;23.25;34.32
74627;BME280;63132;52.268;5.192;2023-07-02T10:58:10;100943.88;;;23.05;35.09
74627;BME280;63132;52.268;5.192;2023-07-02T11:00:45;100951.47;;;22.75;35.73
74627;BME280;63132;52.268;5.192;2023-07-02T11:03:24;100946.78;;;22.26;34.84
74627;BME280;63132;52.268;5.192;2023-07-02T11:05:51;100951.16;;;22.63;36.27
74627;BME280;63132;52.268;5.192;2023-07-02T11:08:17;100951.75;;;23.49;35.11
74627;BME280;63132;52.268;5.192;2023-07-02T11:10:43;100954.94;;;23.60;33.04
74627;BME280;63132;52.268;5.192;2023-07-02T11:13:13;100953.69;;;23.06;34.01
74627;BME280;63132;52.268;5.192;2023-07-02T11:15:39;100959.41;;;22.76;33.97
74627;BME280;63132;52.268;5.192;2023-07-02T11:18:13;100953.25;;;23.72;32.40
74627;BME280;63132;52.268;5.192;2023-07-02T11:20:41;100957.22;;;24.17;32.73
74627;BME280;63132;52.268;5.192;2023-07-02T11:23:25;100947.94;;;23.30;33.21
74627;BME280;63132;52.268;5.192;2023-07-02T11:25:59;100957.03;;;23.78;33.67
74627;BME280;63132;52.268;5.192;2023-07-02T11:28:26;100946.81;;;24.21;32.63
74627;BME280;63132;52.268;5.192;2023-07-02T11:30:52;100950.94;;;23.96;32.96
74627;BME280;63132;52.268;5.192;2023-07-02T11:33:18;100962.97;;;23.33;31.90
74627;BME280;63132;52.268;5.192;2023-07-02T11:35:43;100965.25;;;22.73;33.48
74627;BME280;63132;52.268;5.192;2023-07-02T11:38:09;100954.47;;;23.49;33.67
74627;BME280;63132;52.268;5.192;2023-07-02T11:40:38;100962.50;;;23.15;33.25
74627;BME280;63132;52.268;5.192;2023-07-02T11:43:03;100968.28;;;22.63;33.43
74627;BME280;63132;52.268;5.192;2023-07-02T11:45:31;100973.25;;;22.59;32.89
74627;BME280;63132;52.268;5.192;2023-07-02T11:47:56;100973.25;;;22.53;33.28
74627;BME280;63132;52.268;5.192;2023-07-02T11:50:21;100971.66;;;23.08;33.52
74627;BME280;63132;52.268;5.192;2023-07-02T11:52:47;100980.47;;;22.74;32.72
74627;BME280;63132;52.268;5.192;2023-07-02T11:55:12;100963.19;;;22.18;34.09
74627;BME280;63132;52.268;5.192;2023-07-02T11:57:37;100968.25;;;22.56;33.27
74627;BME280;63132;52.268;5.192;2023-07-02T12:00:03;100961.53;;;22.88;32.74
74627;BME280;63132;52.268;5.192;2023-07-02T12:02:29;100957.41;;;22.92;31.70
74627;BME280;63132;52.268;5.192;2023-07-02T12:04:54;100970.91;;;23.41;31.80
74627;BME280;63132;52.268;5.192;2023-07-02T12:07:20;100974.44;;;22.79;31.45
74627;BME280;63132;52.268;5.192;2023-07-02T12:09:45;100976.00;;;23.02;33.14
74627;BME280;63132;52.268;5.192;2023-07-02T12:12:10;100970.44;;;23.24;32.06
74627;BME280;63132;52.268;5.192;2023-07-02T12:14:36;100966.97;;;23.37;31.34
74627;BME280;63132;52.268;5.192;2023-07-02T12:17:03;100981.88;;;23.12;32.58
74627;BME280;63132;52.268;5.192;2023-07-02T12:19:28;100992.38;;;23.22;33.01
74627;BME280;63132;52.268;5.192;2023-07-02T12:21:53;100990.50;;;23.29;33.46
74627;BME280;63132;52.268;5.192;2023-07-02T12:24:19;100988.78;;;23.91;33.60
74627;BME280;63132;52.268;5.192;2023-07-02T12:26:44;100992.53;;;24.17;33.01
74627;BME280;63132;52.268;5.192;2023-07-02T12:29:10;100989.63;;;23.92;33.73
74627;BME280;63132;52.268;5.192;2023-07-02T12:31:35;100981.84;;;23.55;33.20
74627;BME280;63132;52.268;5.192;2023-07-02T12:34:02;100989.56;;;23.44;32.85
74627;BME280;63132;52.268;5.192;2023-07-02T12:36:28;100987.69;;;23.51;31.92
74627;BME280;63132;52.268;5.192;2023-07-02T12:38:53;100992.38;;;23.22;33.08
74627;BME280;63132;52.268;5.192;2023-07-02T12:41:18;100993.41;;;22.72;33.82
74627;BME280;63132;52.268;5.192;2023-07-02T12:43:44;100993.28;;;22.58;34.24
74627;BME280;63132;52.268;5.192;2023-07-02T12:46:09;100996.72;;;22.74;33.65
74627;BME280;63132;52.268;5.192;2023-07-02T12:48:35;100992.16;;;22.75;33.33
74627;BME280;63132;52.268;5.192;2023-07-02T12:51:00;101003.50;;;22.92;33.24
74627;BME280;63132;52.268;5.192;2023-07-02T12:53:26;100998.22;;;22.83;31.95